createdAt,value
2022-10-13T00:00:11.142Z,100.00
2022-10-13T00:05:12.580Z,100.00
2022-10-13T00:10:14.144Z,100.00
2022-10-13T00:15:15.908Z,100.00
2022-10-13T00:20:17.515Z,100.00
2022-10-13T00:25:20.291Z,100.00
2022-10-13T00:30:21.820Z,100.00
2022-10-13T00:35:23.245Z,100.00
2022-10-13T00:40:24.768Z,100.00
2022-10-13T00:45:29.335Z,100.00
2022-10-13T00:50:37.634Z,100.00
2022-10-13T00:55:41.253Z,100.00
2022-10-13T01:00:48.275Z,100.00
2022-10-13T01:05:52.516Z,100.00
2022-10-13T01:11:12.329Z,100.00
2022-10-13T01:16:23.185Z,100.00
2022-10-13T01:21:39.821Z,100.00
2022-10-13T01:27:27.569Z,100.00
2022-10-13T01:32:34.957Z,100.00
2022-10-13T01:38:06.908Z,100.00
2022-10-13T01:43:14.092Z,100.00
2022-10-13T01:48:17.824Z,100.00
2022-10-13T01:53:20.426Z,100.00
2022-10-13T01:58:23.621Z,100.00
2022-10-13T02:03:37.233Z,100.00
2022-10-13T02:09:06.219Z,100.00
2022-10-13T02:14:15.101Z,100.00
2022-10-13T02:19:18.911Z,100.00
2022-10-13T02:24:20.484Z,100.00
2022-10-13T02:29:22.053Z,100.00
2022-10-13T02:34:23.532Z,100.00
2022-10-13T02:39:24.959Z,100.00
2022-10-13T02:44:26.557Z,100.00
2022-10-13T02:49:28.034Z,100.00
2022-10-13T02:54:29.499Z,100.00
2022-10-13T02:59:46.263Z,100.00
2022-10-13T03:04:48.919Z,100.00
2022-10-13T03:09:50.351Z,100.00
2022-10-13T03:14:51.830Z,100.00
2022-10-13T03:19:53.324Z,100.00
2022-10-13T03:24:54.980Z,100.00
2022-10-13T03:29:56.416Z,100.00
2022-10-13T03:34:57.836Z,100.00
2022-10-13T03:39:59.892Z,100.00
2022-10-13T03:45:01.300Z,100.00
2022-10-13T03:50:04.963Z,100.00
2022-10-13T03:55:06.659Z,100.00
2022-10-13T04:00:10.651Z,100.00
2022-10-13T04:05:12.186Z,100.00
2022-10-13T04:10:13.632Z,100.00
2022-10-13T04:15:15.174Z,100.00
2022-10-13T04:20:17.046Z,100.00
2022-10-13T04:25:18.617Z,100.00
2022-10-13T04:30:20.038Z,100.00
2022-10-13T04:35:21.431Z,100.00
2022-10-13T04:40:22.924Z,100.00
2022-10-13T04:45:24.403Z,100.00
2022-10-13T04:50:25.827Z,100.00
2022-10-13T04:55:27.325Z,100.00
2022-10-13T05:00:28.824Z,100.00
2022-10-13T05:05:30.337Z,100.00
2022-10-13T05:10:34.782Z,100.00
2022-10-13T05:15:38.500Z,100.00
2022-10-13T05:20:40.001Z,100.00
2022-10-13T05:25:41.543Z,100.00
2022-10-13T05:30:42.943Z,100.00
2022-10-13T05:35:44.344Z,100.00
2022-10-13T05:40:45.801Z,100.00
2022-10-13T05:45:47.469Z,100.00
2022-10-13T05:50:48.904Z,100.00
2022-10-13T05:55:51.360Z,100.00
2022-10-13T06:00:54.980Z,100.00
2022-10-13T06:05:56.844Z,100.00
2022-10-13T06:10:58.441Z,100.00
2022-10-13T06:15:59.934Z,100.00
2022-10-13T06:21:01.362Z,100.00
2022-10-13T06:26:04.020Z,100.00
2022-10-13T06:31:06.760Z,100.00
2022-10-13T06:36:08.535Z,100.00
2022-10-13T06:41:10.024Z,100.00
2022-10-13T06:46:12.550Z,100.00
2022-10-13T06:51:13.951Z,100.00
2022-10-13T06:56:15.520Z,100.00
2022-10-13T07:01:17.066Z,100.00
2022-10-13T07:06:18.852Z,100.00
2022-10-13T07:11:20.651Z,100.00
2022-10-13T07:16:22.182Z,100.00
2022-10-13T07:21:23.637Z,100.00
2022-10-13T07:26:25.232Z,100.00
2022-10-13T07:31:26.948Z,100.00
2022-10-13T07:36:28.609Z,100.00
2022-10-13T07:41:30.163Z,100.00
2022-10-13T07:46:31.720Z,100.00
2022-10-13T07:51:33.143Z,100.00
2022-10-13T07:56:34.642Z,100.00
2022-10-13T08:01:36.938Z,100.00
2022-10-13T08:11:45.216Z,100.00
2022-10-13T08:16:48.818Z,100.00
2022-10-13T08:21:58.361Z,100.00
2022-10-13T08:27:00.519Z,100.00
2022-10-13T08:32:02.192Z,100.00
2022-10-13T08:37:04.553Z,100.00
2022-10-13T08:42:18.284Z,100.00
2022-10-13T08:47:29.015Z,100.00
2022-10-13T08:52:46.444Z,100.00
2022-10-13T08:57:48.362Z,100.00
2022-10-13T09:02:50.860Z,100.00
2022-10-13T09:12:56.047Z,100.00
2022-10-13T09:18:10.660Z,100.00
2022-10-13T09:23:22.389Z,100.00
2022-10-13T09:28:27.469Z,100.00
2022-10-13T09:33:35.005Z,100.00
2022-10-13T09:38:37.862Z,100.00
2022-10-13T09:43:59.734Z,100.00
2022-10-13T09:49:38.608Z,100.00
2022-10-13T09:54:40.159Z,100.00
2022-10-13T09:59:53.765Z,100.00
2022-10-13T10:04:58.969Z,100.00
2022-10-13T10:10:14.394Z,100.00
2022-10-13T10:15:24.367Z,100.00
2022-10-13T10:20:28.567Z,100.00
2022-10-13T10:25:39.189Z,100.00
2022-10-13T10:30:49.009Z,100.00
2022-10-13T10:36:16.731Z,100.00
2022-10-13T10:41:47.712Z,100.00
2022-10-13T10:46:50.165Z,100.00
2022-10-13T10:51:52.143Z,100.00
2022-10-13T10:56:58.302Z,100.00
2022-10-13T11:02:15.967Z,100.00
2022-10-13T11:07:23.549Z,100.00
2022-10-13T11:12:44.743Z,100.00
2022-10-13T11:17:46.217Z,100.00
2022-10-13T11:22:59.505Z,100.00
2022-10-13T11:28:20.972Z,85.30
2022-10-13T11:33:53.926Z,85.37
2022-10-13T11:39:32.280Z,92.58
2022-10-13T11:44:59.549Z,92.33
2022-10-13T11:50:07.732Z,90.07
2022-10-13T11:55:17.493Z,94.98
2022-10-13T12:00:19.350Z,96.93
2022-10-13T12:05:27.717Z,95.92
2022-10-13T12:10:32.252Z,94.44
2022-10-13T12:15:44.296Z,97.05
2022-10-13T12:20:52.405Z,97.70
2022-10-13T12:25:58.304Z,97.22
2022-10-13T12:31:00.550Z,96.20
2022-10-13T12:36:20.960Z,88.18
2022-10-13T12:41:34.179Z,88.62
2022-10-13T12:46:47.523Z,92.67
2022-10-13T12:51:53.437Z,93.50
2022-10-13T12:56:58.484Z,95.58
2022-10-13T13:02:02.565Z,96.07
2022-10-13T13:07:06.392Z,97.58
2022-10-13T13:12:10.668Z,99.09
2022-10-13T13:17:56.629Z,100.00
2022-10-13T13:22:54.460Z,99.86
2022-10-13T13:27:55.895Z,99.69
2022-10-13T13:32:57.291Z,100.00
2022-10-13T13:37:58.869Z,100.00
2022-10-13T13:43:00.362Z,100.00
2022-10-13T13:48:01.831Z,100.00
2022-10-13T13:53:04.626Z,100.00
2022-10-13T13:58:06.176Z,100.00
2022-10-13T14:03:07.733Z,100.00
2022-10-13T14:08:09.190Z,100.00
2022-10-13T14:13:10.619Z,100.00
2022-10-13T14:18:13.401Z,100.00
2022-10-13T14:23:14.872Z,100.00
2022-10-13T14:28:18.365Z,100.00
2022-10-13T14:33:20.367Z,100.00
2022-10-13T14:38:21.890Z,100.00
2022-10-13T14:43:23.327Z,100.00
2022-10-13T14:48:25.019Z,100.00
2022-10-13T14:53:28.249Z,100.00
2022-10-13T14:58:30.785Z,100.00
2022-10-13T15:03:32.621Z,100.00
2022-10-13T15:08:34.101Z,100.00
2022-10-13T15:13:35.962Z,100.00
2022-10-13T15:18:37.449Z,100.00
2022-10-13T15:23:39.068Z,100.00
2022-10-13T15:28:45.927Z,100.00
2022-10-13T15:33:51.623Z,100.00
2022-10-13T15:38:53.084Z,100.00
2022-10-13T15:43:54.594Z,100.00
2022-10-13T15:48:56.669Z,100.00
2022-10-13T15:53:59.286Z,100.00
2022-10-13T15:59:00.724Z,100.00
2022-10-13T16:04:02.178Z,100.00
2022-10-13T16:09:04.290Z,100.00
2022-10-13T16:14:05.729Z,100.00
2022-10-13T16:19:07.172Z,100.00
2022-10-13T16:24:08.673Z,100.00
2022-10-13T16:29:10.145Z,100.00
2022-10-13T16:34:11.681Z,100.00
2022-10-13T16:39:13.084Z,100.00
2022-10-13T16:44:15.010Z,100.00
2022-10-13T16:49:16.499Z,100.00
2022-10-13T16:54:18.067Z,100.00
2022-10-13T16:59:19.528Z,100.00
2022-10-13T17:04:22.250Z,100.00
2022-10-13T17:09:23.856Z,100.00
2022-10-13T17:14:25.404Z,100.00
2022-10-13T17:19:26.842Z,100.00
2022-10-13T17:24:29.797Z,100.00
2022-10-13T17:29:31.375Z,100.00
2022-10-13T17:34:32.874Z,100.00
2022-10-13T17:39:34.334Z,100.00
2022-10-13T17:44:35.768Z,100.00
2022-10-13T17:49:37.295Z,100.00
2022-10-13T17:54:38.748Z,100.00
2022-10-13T17:59:40.202Z,100.00
2022-10-13T18:04:41.650Z,100.00
2022-10-13T18:09:43.198Z,100.00
2022-10-13T18:14:44.681Z,100.00
2022-10-13T18:19:46.279Z,100.00
2022-10-13T18:24:47.676Z,100.00
2022-10-13T18:29:49.080Z,100.00
2022-10-13T18:34:50.753Z,100.00
2022-10-13T18:39:52.412Z,100.00
2022-10-13T18:44:53.822Z,100.00
2022-10-13T18:49:55.245Z,100.00
2022-10-13T18:54:56.650Z,100.00
2022-10-13T18:59:58.235Z,100.00
2022-10-13T19:04:59.688Z,100.00
2022-10-13T19:10:01.237Z,100.00
2022-10-13T19:15:02.923Z,100.00
2022-10-13T19:20:04.892Z,100.00
2022-10-13T19:25:06.976Z,100.00
2022-10-13T19:30:09.068Z,100.00
2022-10-13T19:35:10.616Z,100.00
2022-10-13T19:40:12.040Z,100.00
2022-10-13T19:45:13.637Z,100.00
2022-10-13T19:50:15.201Z,100.00
2022-10-13T19:55:16.825Z,100.00
2022-10-13T20:00:18.495Z,100.00
2022-10-13T20:05:25.289Z,100.00
2022-10-13T20:10:27.020Z,100.00
2022-10-13T20:15:28.462Z,100.00
2022-10-13T20:20:29.849Z,100.00
2022-10-13T20:25:31.307Z,100.00
2022-10-13T20:30:33.499Z,100.00
2022-10-13T20:35:34.988Z,100.00
2022-10-13T20:40:36.404Z,100.00
2022-10-13T20:45:37.896Z,100.00
2022-10-13T20:50:39.302Z,100.00
2022-10-13T20:55:41.964Z,100.00
2022-10-13T21:00:43.645Z,100.00
2022-10-13T21:05:46.366Z,100.00
2022-10-13T21:10:49.284Z,100.00
2022-10-13T21:15:50.780Z,100.00
2022-10-13T21:20:52.293Z,100.00
2022-10-13T21:25:53.794Z,100.00
2022-10-13T21:31:06.560Z,100.00
2022-10-13T21:36:10.873Z,100.00
2022-10-13T21:41:14.326Z,100.00
2022-10-13T21:46:25.064Z,100.00
2022-10-13T21:51:34.168Z,100.00
2022-10-13T21:56:37.063Z,100.00
2022-10-13T22:01:38.964Z,100.00
2022-10-13T22:06:40.518Z,100.00
2022-10-13T22:11:43.144Z,100.00
2022-10-13T22:16:47.381Z,100.00
2022-10-13T22:21:49.713Z,100.00
2022-10-13T22:26:51.629Z,100.00
2022-10-13T22:31:57.801Z,100.00
2022-10-13T22:36:59.293Z,100.00
2022-10-13T22:42:00.737Z,100.00
2022-10-13T22:47:02.149Z,100.00
2022-10-13T22:52:04.874Z,100.00
2022-10-13T22:57:06.345Z,100.00
2022-10-13T23:02:08.031Z,100.00
2022-10-13T23:07:09.431Z,100.00
2022-10-13T23:12:10.858Z,100.00
2022-10-13T23:17:12.259Z,100.00
2022-10-13T23:22:13.691Z,100.00
2022-10-13T23:27:15.089Z,100.00
2022-10-13T23:32:16.508Z,100.00
2022-10-13T23:37:18.117Z,100.00
2022-10-13T23:42:19.607Z,100.00
2022-10-13T23:47:21.213Z,100.00
2022-10-13T23:52:22.968Z,100.00
2022-10-13T23:57:24.463Z,100.00
